QXE2509 KSEA-KEAT
Flight info
| Callsign | QXE2509 |
|---|---|
| Flight time | 0h 33m |
| Altitude | 13000 |
| Route | MONTN2 SEA V120 EAT |
| Aircraft | E75L/M-SDE3GILORVW/S |
Departure
| Time | 2026-05-05 04:27 |
|---|---|
| Airport | Seattle–Tacoma International Airport (KSEA) |
Arrival
| Time | 2026-05-05 05:00 |
|---|---|
| Airport | Pangborn Memorial Airport (KEAT) |
| Time | Latitude | Longitude | Altitude | Speed | Heading |
|---|---|---|---|---|---|
| 2026-05-05 04:04 | 47.44503 | -122.30457 | 391 ft | 0 kts | 90° |
| 2026-05-05 04:16 | 47.44503 | -122.30458 | 391 ft | 1 kts | 91° |
| 2026-05-05 04:16 | 47.44501 | -122.30494 | 391 ft | 4 kts | 81° |
| 2026-05-05 04:16 | 47.44493 | -122.30530 | 391 ft | 4 kts | 52° |
| 2026-05-05 04:16 | 47.44476 | -122.30544 | 391 ft | 0 kts | 0° |
| 2026-05-05 04:19 | 47.44479 | -122.30544 | 391 ft | 2 kts | 2° |
| 2026-05-05 04:20 | 47.44524 | -122.30542 | 391 ft | 12 kts | 1° |
| 2026-05-05 04:20 | 47.44634 | -122.30540 | 391 ft | 18 kts | 0° |
| 2026-05-05 04:20 | 47.44770 | -122.30539 | 391 ft | 21 kts | 1° |
| 2026-05-05 04:20 | 47.44920 | -122.30537 | 391 ft | 23 kts | 360° |
| 2026-05-05 04:21 | 47.45083 | -122.30509 | 391 ft | 25 kts | 3° |
| 2026-05-05 04:21 | 47.45260 | -122.30506 | 391 ft | 26 kts | 359° |
| 2026-05-05 04:21 | 47.45449 | -122.30502 | 391 ft | 28 kts | 0° |
| 2026-05-05 04:21 | 47.45634 | -122.30500 | 391 ft | 21 kts | 1° |
| 2026-05-05 04:22 | 47.45786 | -122.30499 | 392 ft | 23 kts | 359° |
| 2026-05-05 04:22 | 47.45953 | -122.30497 | 392 ft | 25 kts | 0° |
| 2026-05-05 04:22 | 47.46128 | -122.30497 | 392 ft | 16 kts | 359° |
| 2026-05-05 04:22 | 47.46195 | -122.30590 | 392 ft | 14 kts | 310° |
| 2026-05-05 04:23 | 47.46260 | -122.30617 | 392 ft | 15 kts | 3° |
| 2026-05-05 04:23 | 47.46355 | -122.30629 | 392 ft | 7 kts | 328° |
| 2026-05-05 04:23 | 47.46366 | -122.30643 | 392 ft | 2 kts | 314° |
| 2026-05-05 04:23 | 47.46367 | -122.30644 | 392 ft | 0 kts | 311° |
| 2026-05-05 04:24 | 47.46369 | -122.30647 | 392 ft | 2 kts | 308° |
| 2026-05-05 04:24 | 47.46378 | -122.30695 | 392 ft | 6 kts | 266° |
| 2026-05-05 04:24 | 47.46352 | -122.30760 | 392 ft | 8 kts | 217° |
| 2026-05-05 04:25 | 47.46307 | -122.30779 | 392 ft | 0 kts | 182° |
| 2026-05-05 04:25 | 47.46300 | -122.30779 | 392 ft | 5 kts | 182° |
| 2026-05-05 04:26 | 47.46244 | -122.30781 | 392 ft | 13 kts | 181° |
| 2026-05-05 04:26 | 47.45989 | -122.30786 | 392 ft | 63 kts | 181° |
| 2026-05-05 04:26 | 47.45375 | -122.30795 | 392 ft | 111 kts | 180° |
| 2026-05-05 04:26 | 47.44479 | -122.30823 | 409 ft | 146 kts | 181° |
| 2026-05-05 04:27 | 47.43392 | -122.30806 | 809 ft | 163 kts | 180° |
| 2026-05-05 04:27 | 47.42208 | -122.30736 | 1358 ft | 178 kts | 179° |
| 2026-05-05 04:27 | 47.40916 | -122.30671 | 1960 ft | 195 kts | 182° |
| 2026-05-05 04:27 | 47.39529 | -122.30808 | 2466 ft | 202 kts | 185° |
| 2026-05-05 04:28 | 47.38107 | -122.30954 | 2973 ft | 213 kts | 181° |
| 2026-05-05 04:28 | 47.36548 | -122.30857 | 3471 ft | 238 kts | 165° |
| 2026-05-05 04:28 | 47.35111 | -122.29600 | 3968 ft | 257 kts | 131° |
| 2026-05-05 04:28 | 47.34269 | -122.27174 | 4515 ft | 276 kts | 100° |
| 2026-05-05 04:29 | 47.34360 | -122.24409 | 5023 ft | 270 kts | 70° |
| 2026-05-05 04:29 | 47.35183 | -122.21949 | 5538 ft | 268 kts | 48° |
| 2026-05-05 04:29 | 47.36682 | -122.20394 | 6052 ft | 265 kts | 17° |
| 2026-05-05 04:29 | 47.38483 | -122.20261 | 6560 ft | 265 kts | 346° |
| 2026-05-05 04:30 | 47.40081 | -122.21611 | 7062 ft | 270 kts | 315° |
| 2026-05-05 04:30 | 47.41030 | -122.24031 | 7577 ft | 278 kts | 294° |
| 2026-05-05 04:30 | 47.41744 | -122.26709 | 8090 ft | 280 kts | 296° |
| 2026-05-05 04:30 | 47.42920 | -122.28953 | 8588 ft | 278 kts | 325° |
| 2026-05-05 04:31 | 47.44694 | -122.30018 | 9091 ft | 278 kts | 354° |
| 2026-05-05 04:31 | 47.46590 | -122.29608 | 9606 ft | 281 kts | 24° |
| 2026-05-05 04:31 | 47.48104 | -122.27816 | 10102 ft | 284 kts | 53° |
| 2026-05-05 04:31 | 47.48833 | -122.25048 | 10589 ft | 299 kts | 82° |
| 2026-05-05 04:32 | 47.48568 | -122.21948 | 11095 ft | 316 kts | 109° |
| 2026-05-05 04:32 | 47.47370 | -122.19157 | 11626 ft | 329 kts | 127° |
| 2026-05-05 04:32 | 47.45912 | -122.16486 | 12151 ft | 337 kts | 121° |
| 2026-05-05 04:32 | 47.44857 | -122.13426 | 12667 ft | 335 kts | 109° |
| 2026-05-05 04:33 | 47.44138 | -122.10151 | 12833 ft | 334 kts | 101° |
| 2026-05-05 04:33 | 47.43650 | -122.06808 | 12888 ft | 332 kts | 97° |
| 2026-05-05 04:33 | 47.43341 | -122.03434 | 12906 ft | 330 kts | 90° |
| 2026-05-05 04:33 | 47.43261 | -122.00054 | 12920 ft | 330 kts | 88° |
| 2026-05-05 04:34 | 47.43209 | -121.96676 | 12919 ft | 328 kts | 88° |
| 2026-05-05 04:34 | 47.43172 | -121.93303 | 12909 ft | 327 kts | 88° |
| 2026-05-05 04:34 | 47.43143 | -121.89942 | 12906 ft | 327 kts | 88° |
| 2026-05-05 04:34 | 47.43110 | -121.86586 | 12917 ft | 326 kts | 88° |
| 2026-05-05 04:35 | 47.43076 | -121.83233 | 12930 ft | 327 kts | 89° |
| 2026-05-05 04:35 | 47.43039 | -121.79886 | 12925 ft | 326 kts | 89° |
| 2026-05-05 04:35 | 47.43013 | -121.76554 | 12921 ft | 325 kts | 88° |
| 2026-05-05 04:35 | 47.42973 | -121.73205 | 12921 ft | 326 kts | 89° |
| 2026-05-05 04:36 | 47.42927 | -121.69870 | 12923 ft | 325 kts | 89° |
| 2026-05-05 04:36 | 47.42878 | -121.66520 | 12933 ft | 325 kts | 88° |
| 2026-05-05 04:36 | 47.42834 | -121.63167 | 12940 ft | 326 kts | 88° |
| 2026-05-05 04:36 | 47.42793 | -121.59811 | 12918 ft | 326 kts | 88° |
| 2026-05-05 04:37 | 47.42736 | -121.56458 | 12884 ft | 326 kts | 89° |
| 2026-05-05 04:37 | 47.42685 | -121.53119 | 12919 ft | 326 kts | 88° |
| 2026-05-05 04:37 | 47.42638 | -121.49807 | 12946 ft | 327 kts | 89° |
| 2026-05-05 04:37 | 47.42585 | -121.46408 | 12941 ft | 327 kts | 89° |
| 2026-05-05 04:38 | 47.42530 | -121.43064 | 12945 ft | 327 kts | 90° |
| 2026-05-05 04:38 | 47.42479 | -121.39753 | 12932 ft | 327 kts | 90° |
| 2026-05-05 04:38 | 47.42423 | -121.36391 | 12926 ft | 326 kts | 90° |
| 2026-05-05 04:38 | 47.42366 | -121.33048 | 12929 ft | 326 kts | 89° |
| 2026-05-05 04:39 | 47.42314 | -121.29692 | 12909 ft | 326 kts | 88° |
| 2026-05-05 04:39 | 47.42255 | -121.26347 | 12915 ft | 327 kts | 89° |
| 2026-05-05 04:39 | 47.42199 | -121.22997 | 12919 ft | 326 kts | 89° |
| 2026-05-05 04:39 | 47.42138 | -121.19655 | 12918 ft | 326 kts | 88° |
| 2026-05-05 04:40 | 47.42079 | -121.16304 | 12921 ft | 327 kts | 90° |
| 2026-05-05 04:40 | 47.42014 | -121.12955 | 12886 ft | 330 kts | 90° |
| 2026-05-05 04:40 | 47.41950 | -121.09505 | 12884 ft | 339 kts | 89° |
| 2026-05-05 04:40 | 47.41885 | -121.06016 | 12894 ft | 341 kts | 90° |
| 2026-05-05 04:41 | 47.41818 | -121.02539 | 12882 ft | 339 kts | 90° |
| 2026-05-05 04:41 | 47.41748 | -120.99054 | 12899 ft | 340 kts | 89° |
| 2026-05-05 04:41 | 47.41679 | -120.95549 | 12900 ft | 341 kts | 90° |
| 2026-05-05 04:41 | 47.41610 | -120.92047 | 12893 ft | 342 kts | 89° |
| 2026-05-05 04:42 | 47.41539 | -120.88553 | 12855 ft | 340 kts | 89° |
| 2026-05-05 04:42 | 47.41468 | -120.85060 | 12871 ft | 341 kts | 89° |
| 2026-05-05 04:42 | 47.41396 | -120.81564 | 12838 ft | 340 kts | 90° |
| 2026-05-05 04:42 | 47.41315 | -120.78076 | 12810 ft | 339 kts | 89° |
| 2026-05-05 04:43 | 47.41246 | -120.74595 | 12783 ft | 340 kts | 89° |
| 2026-05-05 04:43 | 47.41174 | -120.71101 | 12802 ft | 340 kts | 90° |
| 2026-05-05 04:43 | 47.41094 | -120.67611 | 12817 ft | 340 kts | 90° |
| 2026-05-05 04:43 | 47.41013 | -120.64120 | 12825 ft | 341 kts | 90° |
| 2026-05-05 04:44 | 47.40939 | -120.60656 | 12798 ft | 340 kts | 90° |
| 2026-05-05 04:44 | 47.40859 | -120.57163 | 12825 ft | 341 kts | 90° |
| 2026-05-05 04:44 | 47.40776 | -120.53668 | 12831 ft | 342 kts | 89° |
| 2026-05-05 04:44 | 47.40694 | -120.50162 | 12820 ft | 341 kts | 90° |
| 2026-05-05 04:45 | 47.40609 | -120.46615 | 12826 ft | 349 kts | 90° |
| 2026-05-05 04:45 | 47.40599 | -120.43097 | 12762 ft | 332 kts | 83° |
| 2026-05-05 04:45 | 47.40945 | -120.39770 | 12534 ft | 313 kts | 79° |
| 2026-05-05 04:45 | 47.41239 | -120.36676 | 12520 ft | 295 kts | 83° |
| 2026-05-05 04:46 | 47.41143 | -120.33753 | 12595 ft | 276 kts | 95° |
| 2026-05-05 04:46 | 47.40873 | -120.31039 | 12659 ft | 267 kts | 98° |
| 2026-05-05 04:46 | 47.40547 | -120.28320 | 12695 ft | 266 kts | 96° |
| 2026-05-05 04:46 | 47.40234 | -120.25619 | 12763 ft | 268 kts | 97° |
| 2026-05-05 04:47 | 47.39971 | -120.22856 | 12458 ft | 273 kts | 92° |
| 2026-05-05 04:47 | 47.39974 | -120.20117 | 12214 ft | 268 kts | 85° |
| 2026-05-05 04:47 | 47.40001 | -120.17401 | 12155 ft | 262 kts | 86° |
| 2026-05-05 04:47 | 47.40008 | -120.14718 | 12076 ft | 262 kts | 86° |
| 2026-05-05 04:48 | 47.40011 | -120.12026 | 12022 ft | 263 kts | 86° |
| 2026-05-05 04:48 | 47.40016 | -120.09327 | 11971 ft | 264 kts | 86° |
| 2026-05-05 04:48 | 47.40021 | -120.06632 | 11925 ft | 262 kts | 87° |
| 2026-05-05 04:48 | 47.40027 | -120.03949 | 11879 ft | 262 kts | 87° |
| 2026-05-05 04:49 | 47.39999 | -120.01246 | 11833 ft | 263 kts | 89° |
| 2026-05-05 04:49 | 47.39983 | -119.98554 | 11752 ft | 262 kts | 87° |
| 2026-05-05 04:49 | 47.39891 | -119.95873 | 11716 ft | 263 kts | 95° |
| 2026-05-05 04:49 | 47.39474 | -119.93225 | 11632 ft | 267 kts | 108° |
| 2026-05-05 04:50 | 47.38655 | -119.90769 | 11438 ft | 268 kts | 122° |
| 2026-05-05 04:50 | 47.37492 | -119.88638 | 11250 ft | 266 kts | 134° |
| 2026-05-05 04:50 | 47.36081 | -119.86964 | 11081 ft | 252 kts | 147° |
| 2026-05-05 04:50 | 47.34575 | -119.85859 | 10900 ft | 236 kts | 163° |
| 2026-05-05 04:51 | 47.33048 | -119.85118 | 10643 ft | 227 kts | 162° |
| 2026-05-05 04:51 | 47.31563 | -119.84448 | 10387 ft | 220 kts | 167° |
| 2026-05-05 04:51 | 47.30078 | -119.84158 | 10118 ft | 212 kts | 190° |
| 2026-05-05 04:51 | 47.28739 | -119.84893 | 9873 ft | 204 kts | 214° |
| 2026-05-05 04:52 | 47.27529 | -119.85943 | 9612 ft | 199 kts | 214° |
| 2026-05-05 04:52 | 47.26391 | -119.87066 | 9327 ft | 196 kts | 219° |
| 2026-05-05 04:52 | 47.25320 | -119.88376 | 9059 ft | 205 kts | 228° |
| 2026-05-05 04:52 | 47.24438 | -119.90026 | 8826 ft | 207 kts | 240° |
| 2026-05-05 04:53 | 47.23780 | -119.91919 | 8601 ft | 212 kts | 252° |
| 2026-05-05 04:53 | 47.23393 | -119.94004 | 8320 ft | 213 kts | 264° |
| 2026-05-05 04:53 | 47.23327 | -119.96095 | 8002 ft | 195 kts | 276° |
| 2026-05-05 04:53 | 47.23508 | -119.97982 | 7647 ft | 180 kts | 289° |
| 2026-05-05 04:54 | 47.23946 | -119.99659 | 7294 ft | 172 kts | 296° |
| 2026-05-05 04:54 | 47.24432 | -120.01195 | 7010 ft | 159 kts | 304° |
| 2026-05-05 04:54 | 47.25062 | -120.02408 | 6733 ft | 141 kts | 316° |
| 2026-05-05 04:54 | 47.25720 | -120.03414 | 6486 ft | 133 kts | 323° |
| 2026-05-05 04:55 | 47.26450 | -120.04197 | 6243 ft | 128 kts | 330° |
| 2026-05-05 04:55 | 47.27200 | -120.04883 | 5983 ft | 127 kts | 335° |
| 2026-05-05 04:55 | 47.27990 | -120.05498 | 5770 ft | 129 kts | 337° |
| 2026-05-05 04:55 | 47.28790 | -120.06103 | 5624 ft | 128 kts | 338° |
| 2026-05-05 04:56 | 47.29596 | -120.06695 | 5459 ft | 130 kts | 338° |
| 2026-05-05 04:56 | 47.30397 | -120.07315 | 5245 ft | 131 kts | 338° |
| 2026-05-05 04:56 | 47.31206 | -120.07926 | 5036 ft | 130 kts | 338° |
| 2026-05-05 04:56 | 47.31999 | -120.08535 | 4825 ft | 127 kts | 339° |
| 2026-05-05 04:57 | 47.32801 | -120.09142 | 4579 ft | 130 kts | 339° |
| 2026-05-05 04:57 | 47.33599 | -120.09751 | 4316 ft | 127 kts | 339° |
| 2026-05-05 04:57 | 47.34375 | -120.10345 | 4078 ft | 125 kts | 339° |
| 2026-05-05 04:57 | 47.35160 | -120.10932 | 3831 ft | 128 kts | 339° |
| 2026-05-05 04:58 | 47.35903 | -120.11677 | 3573 ft | 131 kts | 323° |
| 2026-05-05 04:58 | 47.36386 | -120.12837 | 3330 ft | 140 kts | 288° |
| 2026-05-05 04:58 | 47.36452 | -120.14278 | 3102 ft | 146 kts | 281° |
| 2026-05-05 04:58 | 47.36625 | -120.15717 | 2832 ft | 138 kts | 301° |
| 2026-05-05 04:59 | 47.37205 | -120.16834 | 2483 ft | 136 kts | 318° |
| 2026-05-05 04:59 | 47.37882 | -120.17836 | 2048 ft | 138 kts | 317° |
| 2026-05-05 04:59 | 47.38554 | -120.18771 | 1659 ft | 133 kts | 315° |
| 2026-05-05 04:59 | 47.39193 | -120.19691 | 1334 ft | 124 kts | 314° |
| 2026-05-05 05:00 | 47.39750 | -120.20514 | 1233 ft | 100 kts | 315° |
| 2026-05-05 05:00 | 47.40079 | -120.20999 | 1223 ft | 55 kts | 315° |
| 2026-05-05 05:00 | 47.40269 | -120.21273 | 1219 ft | 20 kts | 313° |
| 2026-05-05 05:00 | 47.40367 | -120.21426 | 1215 ft | 21 kts | 313° |
| 2026-05-05 05:01 | 47.40478 | -120.21589 | 1210 ft | 24 kts | 316° |
| 2026-05-05 05:01 | 47.40580 | -120.21677 | 1206 ft | 12 kts | 355° |
| 2026-05-05 05:01 | 47.40629 | -120.21634 | 1207 ft | 8 kts | 44° |
| 2026-05-05 05:01 | 47.40643 | -120.21612 | 1208 ft | 0 kts | 51° |